Time;durP1;ratioP1;P1;durP2;ratioP2;P2;SDS_P1;SDS_P2;PMS_P1;PMS_P2;Temp;Humidity;BMP_temperature;BMP_pressure;BME280_temperature;BME280_humidity;BME280_pressure;Samples;Min_cycle;Max_cycle;Signal;HPM_P1;HPM_P2
2023/12/19 00:01:32;;;;;;;28.73;15.65;;;9.30;99.90;;;;;;5036530;28;20053;-62
2023/12/19 00:03:57;;;;;;;30.75;16.15;;;9.40;99.90;;;;;;5054020;28;20124;-62
2023/12/19 00:06:23;;;;;;;28.00;16.20;;;9.40;99.90;;;;;;5052775;28;20033;-62
2023/12/19 00:08:49;;;;;;;35.88;17.33;;;9.40;99.90;;;;;;5029432;28;20085;-62
2023/12/19 00:11:14;;;;;;;27.70;17.10;;;9.30;99.90;;;;;;4999710;28;20053;-62
2023/12/19 00:13:40;;;;;;;32.72;17.35;;;9.30;99.90;;;;;;5015936;28;20041;-62
2023/12/19 00:16:06;;;;;;;30.85;17.25;;;9.30;99.90;;;;;;5034504;28;20037;-62
2023/12/19 00:18:31;;;;;;;32.97;20.23;;;9.30;99.90;;;;;;5015629;28;20083;-62
2023/12/19 00:20:57;;;;;;;33.35;19.98;;;9.20;99.90;;;;;;5016622;28;20045;-62
2023/12/19 00:23:23;;;;;;;31.25;18.90;;;9.20;99.90;;;;;;5015595;28;20041;-62
2023/12/19 00:25:49;;;;;;;40.92;24.65;;;9.10;99.90;;;;;;5016648;28;20045;-62
2023/12/19 00:28:14;;;;;;;31.02;20.13;;;9.00;99.90;;;;;;5032919;28;20498;-62
2023/12/19 00:30:40;;;;;;;38.10;20.55;;;9.00;99.90;;;;;;5015540;28;20041;-62
2023/12/19 00:33:06;;;;;;;34.28;20.85;;;9.00;99.90;;;;;;5032901;28;20043;-62
2023/12/19 00:35:34;;;;;;;32.50;19.88;;;8.80;99.90;;;;;;5033592;28;20029;-62
2023/12/19 00:38:02;;;;;;;29.52;18.80;;;8.80;99.90;;;;;;5031494;28;20049;-62
2023/12/19 00:40:28;;;;;;;29.85;19.95;;;8.70;99.90;;;;;;5015746;28;20096;-62
2023/12/19 00:42:54;;;;;;;27.52;18.65;;;8.70;99.90;;;;;;4999815;28;20437;-62
2023/12/19 00:45:19;;;;;;;28.83;18.35;;;8.70;99.90;;;;;;5015529;28;20453;-62
2023/12/19 00:47:45;;;;;;;27.25;17.55;;;8.70;99.90;;;;;;5033503;28;20029;-62
2023/12/19 00:50:15;;;;;;;26.33;16.33;;;8.60;99.90;;;;;;5015843;28;20040;-62
2023/12/19 00:52:43;;;;;;;29.02;17.60;;;8.60;99.90;;;;;;4998582;28;20033;-62
2023/12/19 00:55:09;;;;;;;28.33;19.27;;;8.50;99.90;;;;;;4999460;28;20038;-62
2023/12/19 00:57:34;;;;;;;32.67;19.60;;;8.60;99.90;;;;;;5015991;28;20042;-62
2023/12/19 01:00:00;;;;;;;31.92;18.85;;;8.60;99.90;;;;;;5015422;28;20443;-62
2023/12/19 01:02:27;;;;;;;31.27;18.38;;;8.60;99.90;;;;;;5019637;28;20057;-62
2023/12/19 01:04:56;;;;;;;28.75;19.05;;;8.60;99.90;;;;;;5002077;28;20118;-63
2023/12/19 01:07:23;;;;;;;31.88;19.45;;;8.50;99.90;;;;;;5014795;28;20085;-62
2023/12/19 01:09:49;;;;;;;27.67;18.55;;;8.50;99.90;;;;;;4996770;28;20041;-62
2023/12/19 01:12:14;;;;;;;25.48;17.67;;;8.50;99.90;;;;;;4979588;28;20104;-62
2023/12/19 01:14:42;;;;;;;29.73;18.10;;;8.40;99.90;;;;;;4994948;28;20125;-62
2023/12/19 01:17:07;;;;;;;28.33;18.50;;;8.40;99.90;;;;;;4979658;28;20080;-62
2023/12/19 01:19:33;;;;;;;23.88;15.52;;;8.40;99.90;;;;;;4995078;28;20049;-62
2023/12/19 01:21:59;;;;;;;26.15;18.60;;;8.40;99.90;;;;;;4995895;28;20482;-62
2023/12/19 01:24:25;;;;;;;21.10;14.23;;;8.40;99.90;;;;;;4995655;28;20121;-62
2023/12/19 01:26:51;;;;;;;24.83;15.85;;;8.40;99.90;;;;;;4994972;28;20512;-62
2023/12/19 01:29:18;;;;;;;23.00;14.73;;;8.40;99.90;;;;;;5013097;28;20042;-62
2023/12/19 01:31:43;;;;;;;19.95;14.18;;;8.30;99.90;;;;;;5011907;28;20042;-62
2023/12/19 01:34:09;;;;;;;21.88;14.07;;;8.40;99.90;;;;;;4994814;28;20041;-62
2023/12/19 01:36:37;;;;;;;18.38;13.15;;;8.30;99.90;;;;;;5003250;28;20486;-62
2023/12/19 01:39:03;;;;;;;25.27;14.48;;;8.30;99.90;;;;;;4998785;28;20042;-62
2023/12/19 01:41:29;;;;;;;23.80;14.57;;;8.30;99.90;;;;;;5014159;28;20402;-62
2023/12/19 01:43:59;;;;;;;22.67;14.48;;;8.30;99.90;;;;;;4998566;28;20089;-62
2023/12/19 01:46:25;;;;;;;20.02;12.65;;;8.30;99.90;;;;;;5014850;28;20045;-62
2023/12/19 01:48:50;;;;;;;20.77;13.45;;;8.30;99.90;;;;;;5014275;28;20056;-63
2023/12/19 01:51:17;;;;;;;21.70;12.73;;;8.30;99.90;;;;;;5014825;28;20124;-63
2023/12/19 01:53:44;;;;;;;22.20;14.60;;;8.20;99.90;;;;;;4998316;28;20048;-63
2023/12/19 01:56:12;;;;;;;21.60;13.82;;;8.30;99.90;;;;;;5010704;28;20112;-62
2023/12/19 01:58:38;;;;;;;19.35;12.52;;;8.30;99.90;;;;;;4995200;28;20053;-62
2023/12/19 02:01:05;;;;;;;18.70;13.23;;;8.20;99.90;;;;;;5003849;28;20030;-62
2023/12/19 02:03:32;;;;;;;20.88;13.35;;;8.20;99.90;;;;;;5033527;28;20372;-62
2023/12/19 02:05:59;;;;;;;17.80;12.43;;;8.20;99.90;;;;;;5034684;28;20506;-62
2023/12/19 02:08:26;;;;;;;19.30;11.88;;;8.20;99.90;;;;;;5017745;28;20048;-62
2023/12/19 02:10:52;;;;;;;20.63;13.73;;;8.30;99.90;;;;;;5017427;28;20045;-62
2023/12/19 02:13:19;;;;;;;17.50;12.23;;;8.20;99.90;;;;;;5030912;28;20584;-62
2023/12/19 02:15:44;;;;;;;18.98;12.98;;;8.20;99.90;;;;;;5029944;28;20068;-62
2023/12/19 02:18:18;;;;;;;16.75;11.60;;;8.20;99.90;;;;;;5030683;28;20045;-62
2023/12/19 02:20:44;;;;;;;20.10;14.25;;;8.20;99.90;;;;;;5014536;28;20042;-62
2023/12/19 02:23:11;;;;;;;21.90;13.13;;;8.20;99.90;;;;;;5031377;28;20037;-62
2023/12/19 02:25:37;;;;;;;20.13;13.00;;;8.10;99.90;;;;;;5019191;28;20077;-62
2023/12/19 02:28:03;;;;;;;19.55;13.75;;;8.10;99.90;;;;;;5014916;28;20072;-62
2023/12/19 02:30:29;;;;;;;19.63;13.40;;;8.10;99.90;;;;;;5013535;28;20099;-62
2023/12/19 02:32:55;;;;;;;24.20;14.15;;;8.20;99.90;;;;;;4998614;28;20060;-62
2023/12/19 02:35:21;;;;;;;26.20;16.27;;;8.20;99.90;;;;;;5015160;28;20487;-62
2023/12/19 02:37:47;;;;;;;23.98;15.55;;;8.20;99.90;;;;;;5017792;28;20398;-62
2023/12/19 02:40:13;;;;;;;26.67;15.77;;;8.10;99.90;;;;;;5018554;28;20405;-62
2023/12/19 02:42:42;;;;;;;22.67;14.68;;;8.10;99.90;;;;;;5018225;28;20037;-62
2023/12/19 02:45:11;;;;;;;25.00;14.90;;;8.20;99.90;;;;;;5017379;28;20047;-62
2023/12/19 02:47:36;;;;;;;18.02;12.88;;;8.10;99.90;;;;;;5018475;28;20124;-62
2023/12/19 02:50:03;;;;;;;22.17;14.15;;;8.10;99.90;;;;;;5019224;28;20096;-62
2023/12/19 02:52:28;;;;;;;19.70;13.18;;;8.10;99.90;;;;;;5020161;28;20124;-62
2023/12/19 02:54:54;;;;;;;21.75;13.00;;;8.00;99.90;;;;;;5054598;28;20120;-62
2023/12/19 02:57:19;;;;;;;19.17;13.43;;;8.10;99.90;;;;;;5037213;28;20073;-62
2023/12/19 02:59:45;;;;;;;18.48;12.18;;;8.00;99.90;;;;;;5036022;28;20052;-62
2023/12/19 03:02:11;;;;;;;19.35;12.13;;;8.00;99.90;;;;;;5017769;28;20042;-63
2023/12/19 03:04:38;;;;;;;19.17;13.40;;;8.00;99.90;;;;;;5018090;28;20120;-62
2023/12/19 03:07:04;;;;;;;17.40;12.32;;;8.00;99.90;;;;;;5017385;28;20103;-63
2023/12/19 03:09:30;;;;;;;17.50;11.60;;;7.90;99.90;;;;;;5017465;28;20041;-62
2023/12/19 03:12:06;;;;;;;17.38;11.32;;;7.90;99.90;;;;;;5017827;28;20077;-62
2023/12/19 03:14:34;;;;;;;19.20;12.75;;;7.90;99.90;;;;;;5001339;28;20469;-62
2023/12/19 03:17:04;;;;;;;17.60;13.02;;;7.90;99.90;;;;;;5017719;28;20056;-62
2023/12/19 03:19:30;;;;;;;19.15;13.63;;;7.90;99.90;;;;;;5016685;28;20044;-62
2023/12/19 03:21:56;;;;;;;18.35;11.48;;;7.90;99.90;;;;;;5022803;28;20100;-62
2023/12/19 03:24:22;;;;;;;15.13;9.98;;;7.80;99.90;;;;;;5051716;28;20424;-62
2023/12/19 03:26:48;;;;;;;16.50;10.95;;;7.90;99.90;;;;;;5000507;28;20070;-62
2023/12/19 03:29:14;;;;;;;17.45;11.18;;;7.90;99.90;;;;;;5017440;28;20041;-62
2023/12/19 03:31:40;;;;;;;18.83;10.82;;;7.80;99.90;;;;;;5017535;28;20402;-62
2023/12/19 03:34:06;;;;;;;19.30;12.23;;;7.90;99.90;;;;;;5033334;28;20056;-62
2023/12/19 03:36:32;;;;;;;18.02;11.75;;;7.80;99.90;;;;;;5017489;28;20046;-62
2023/12/19 03:38:57;;;;;;;18.15;11.27;;;7.80;99.90;;;;;;5017564;28;20573;-62
2023/12/19 03:41:23;;;;;;;18.55;11.68;;;7.80;99.90;;;;;;5016487;28;20049;-62
2023/12/19 03:43:48;;;;;;;17.27;11.40;;;7.90;99.90;;;;;;5017067;28;20073;-62
2023/12/19 03:46:14;;;;;;;20.02;12.13;;;7.90;99.90;;;;;;5035420;28;20064;-62
2023/12/19 03:48:45;;;;;;;17.15;10.80;;;7.80;99.90;;;;;;5034127;28;20080;-63
2023/12/19 03:51:12;;;;;;;18.50;12.80;;;7.90;99.90;;;;;;5017669;28;20124;-62
2023/12/19 03:53:37;;;;;;;18.80;11.70;;;7.90;99.90;;;;;;5016883;28;20136;-62
2023/12/19 03:56:04;;;;;;;17.40;11.23;;;7.80;99.90;;;;;;5016395;28;20117;-63
2023/12/19 03:58:29;;;;;;;15.60;10.18;;;7.80;99.90;;;;;;5016686;28;20486;-62
2023/12/19 04:00:55;;;;;;;16.30;11.68;;;7.90;99.90;;;;;;5033596;28;20167;-62
2023/12/19 04:03:20;;;;;;;15.73;11.18;;;7.80;99.90;;;;;;5032179;28;20124;-62
2023/12/19 04:05:46;;;;;;;14.57;9.65;;;7.90;99.90;;;;;;5006348;28;20128;-63
2023/12/19 04:08:12;;;;;;;17.05;10.25;;;7.80;99.90;;;;;;5016624;28;20052;-62
2023/12/19 04:10:37;;;;;;;14.65;10.48;;;7.80;99.90;;;;;;5016279;28;20056;-62
2023/12/19 04:13:03;;;;;;;13.05;8.85;;;7.80;99.90;;;;;;5017200;28;20038;-63
2023/12/19 04:15:30;;;;;;;12.75;8.57;;;7.80;99.90;;;;;;5028759;28;20111;-63
2023/12/19 04:17:55;;;;;;;11.80;8.13;;;7.80;99.90;;;;;;5036706;28;20060;-62
2023/12/19 04:20:21;;;;;;;13.73;8.82;;;7.80;99.90;;;;;;5052891;28;20037;-62
2023/12/19 04:22:47;;;;;;;13.77;8.88;;;7.80;99.90;;;;;;5019061;28;20041;-62
2023/12/19 04:25:12;;;;;;;13.18;8.73;;;7.80;99.90;;;;;;5052743;28;20064;-62
2023/12/19 04:27:38;;;;;;;13.18;8.10;;;7.80;99.90;;;;;;5036059;28;20091;-62
2023/12/19 04:30:05;;;;;;;13.65;8.00;;;7.80;99.90;;;;;;5019271;28;20059;-61
2023/12/19 04:32:31;;;;;;;15.05;8.82;;;7.80;99.90;;;;;;5019027;28;20505;-61
2023/12/19 04:34:56;;;;;;;13.13;8.30;;;7.80;99.90;;;;;;5017626;28;20052;-61
2023/12/19 04:37:22;;;;;;;13.65;7.90;;;7.80;99.90;;;;;;5015353;28;20041;-61
2023/12/19 04:39:47;;;;;;;13.43;8.93;;;7.80;99.90;;;;;;5033849;28;20045;-61
2023/12/19 04:42:17;;;;;;;13.48;8.45;;;7.80;99.90;;;;;;5001288;28;20483;-61
2023/12/19 04:44:44;;;;;;;11.40;7.32;;;7.90;99.90;;;;;;5035016;28;20490;-61
2023/12/19 04:47:10;;;;;;;15.23;8.85;;;7.90;99.90;;;;;;5035763;28;20056;-61
2023/12/19 04:49:36;;;;;;;11.77;7.40;;;7.80;99.90;;;;;;5019147;28;20048;-61
2023/12/19 04:52:03;;;;;;;13.18;7.85;;;7.90;99.90;;;;;;5035180;28;20053;-61
2023/12/19 04:54:29;;;;;;;10.98;7.10;;;7.90;99.90;;;;;;5035674;28;20524;-61
2023/12/19 04:56:54;;;;;;;13.82;7.47;;;7.90;99.90;;;;;;5035510;28;20076;-62
2023/12/19 04:59:20;;;;;;;11.85;7.78;;;7.90;99.90;;;;;;5034343;28;20090;-62
2023/12/19 05:01:46;;;;;;;11.18;7.35;;;7.90;99.90;;;;;;5025470;28;20053;-62
2023/12/19 05:04:12;;;;;;;12.15;7.57;;;7.90;99.90;;;;;;5016017;28;20057;-62
2023/12/19 05:06:37;;;;;;;10.65;6.60;;;7.90;99.90;;;;;;5032657;28;20128;-62
2023/12/19 05:09:03;;;;;;;12.02;7.10;;;7.90;99.90;;;;;;5015788;28;20048;-62
2023/12/19 05:11:29;;;;;;;12.35;7.55;;;7.90;99.90;;;;;;5018643;28;20080;-62
2023/12/19 05:13:55;;;;;;;12.75;7.55;;;8.00;99.90;;;;;;5052663;28;20485;-62
2023/12/19 05:16:20;;;;;;;14.25;7.40;;;8.00;99.90;;;;;;5035597;28;20470;-62
2023/12/19 05:18:46;;;;;;;10.85;6.78;;;7.90;99.90;;;;;;5050942;28;20072;-62
2023/12/19 05:21:12;;;;;;;11.90;6.72;;;8.00;99.90;;;;;;5035115;28;20440;-62
2023/12/19 05:23:39;;;;;;;11.38;7.72;;;7.90;99.90;;;;;;5035319;28;20040;-62
2023/12/19 05:26:09;;;;;;;10.73;6.95;;;7.90;99.90;;;;;;5034621;28;20041;-62
2023/12/19 05:28:36;;;;;;;11.77;6.88;;;8.00;99.90;;;;;;5052957;28;20045;-62
2023/12/19 05:31:02;;;;;;;10.63;6.30;;;7.90;99.90;;;;;;5035367;28;20068;-62
2023/12/19 05:33:29;;;;;;;10.43;6.65;;;7.90;99.90;;;;;;5017780;28;20048;-62
2023/12/19 05:35:55;;;;;;;12.60;7.65;;;8.00;99.90;;;;;;5034294;28;20465;-62
2023/12/19 05:38:21;;;;;;;11.65;6.82;;;8.00;99.90;;;;;;5015256;28;20068;-62
2023/12/19 05:40:48;;;;;;;11.43;8.02;;;8.00;99.90;;;;;;5014558;28;20398;-62
2023/12/19 05:43:14;;;;;;;12.18;7.32;;;8.00;99.90;;;;;;5014908;28;20045;-61
2023/12/19 05:45:40;;;;;;;11.25;6.60;;;8.00;99.90;;;;;;5014993;28;20079;-62
2023/12/19 05:48:07;;;;;;;10.82;6.88;;;8.10;99.90;;;;;;5014558;28;20163;-62
2023/12/19 05:50:32;;;;;;;11.63;7.03;;;8.00;99.90;;;;;;5014913;28;20049;-62
2023/12/19 05:52:58;;;;;;;10.75;7.00;;;8.10;99.90;;;;;;5015265;28;20045;-62
2023/12/19 05:55:24;;;;;;;11.20;7.07;;;8.00;99.90;;;;;;5014113;28;20126;-62
2023/12/19 05:57:50;;;;;;;8.82;5.68;;;8.10;99.90;;;;;;5014695;28;20072;-62
2023/12/19 06:00:17;;;;;;;10.25;6.13;;;8.10;99.90;;;;;;5014627;28;20140;-62
2023/12/19 06:02:43;;;;;;;9.77;6.63;;;8.00;99.90;;;;;;5013781;28;20107;-62
2023/12/19 06:05:09;;;;;;;10.25;6.20;;;8.10;99.90;;;;;;5024422;28;20041;-62
2023/12/19 06:07:40;;;;;;;10.05;6.22;;;8.00;99.90;;;;;;5034227;28;20045;-62
2023/12/19 06:10:11;;;;;;;11.50;6.70;;;8.10;99.90;;;;;;5033086;28;20068;-61
2023/12/19 06:12:37;;;;;;;8.48;6.25;;;8.10;99.90;;;;;;5034487;28;20421;-62
2023/12/19 06:15:08;;;;;;;10.40;7.43;;;8.10;99.90;;;;;;5033759;28;20037;-62
2023/12/19 06:17:34;;;;;;;11.93;7.28;;;8.10;99.90;;;;;;5034038;28;20436;-61
2023/12/19 06:20:00;;;;;;;10.30;7.28;;;8.20;99.90;;;;;;5052345;28;20466;-61
2023/12/19 06:22:26;;;;;;;11.70;7.53;;;8.10;99.90;;;;;;5033383;28;20068;-62
2023/12/19 06:24:51;;;;;;;12.60;7.93;;;8.20;99.90;;;;;;5013863;28;20045;-62
2023/12/19 06:27:17;;;;;;;12.80;8.75;;;8.20;99.90;;;;;;5014215;28;20077;-61
2023/12/19 06:29:43;;;;;;;10.27;7.22;;;8.20;99.90;;;;;;5031445;28;20043;-62
2023/12/19 06:32:10;;;;;;;11.80;8.57;;;8.10;99.90;;;;;;5014492;28;20045;-61
2023/12/19 06:34:36;;;;;;;12.75;8.30;;;8.20;99.90;;;;;;5014474;28;20045;-61
2023/12/19 06:37:02;;;;;;;12.23;8.35;;;8.20;99.90;;;;;;5013553;28;20548;-61
2023/12/19 06:39:27;;;;;;;11.30;7.43;;;8.20;99.90;;;;;;5015445;28;20506;-61
2023/12/19 06:41:53;;;;;;;10.77;6.80;;;8.30;99.90;;;;;;5014322;28;20132;-61
2023/12/19 06:44:19;;;;;;;12.73;8.73;;;8.30;99.90;;;;;;4997159;28;20391;-61
2023/12/19 06:46:49;;;;;;;11.00;6.78;;;8.30;99.90;;;;;;5014131;28;20050;-61
2023/12/19 06:49:19;;;;;;;12.27;7.88;;;8.30;99.90;;;;;;5017159;28;20045;-61
2023/12/19 06:51:44;;;;;;;10.65;7.55;;;8.40;99.90;;;;;;5033112;28;20059;-62
2023/12/19 06:54:10;;;;;;;10.93;7.65;;;8.40;99.90;;;;;;5033699;28;20053;-61
2023/12/19 06:56:36;;;;;;;11.88;7.35;;;8.50;99.90;;;;;;5033703;28;20039;-61
2023/12/19 06:59:03;;;;;;;11.23;7.70;;;8.50;99.90;;;;;;5021297;28;20044;-61
2023/12/19 07:01:29;;;;;;;11.90;7.50;;;8.50;99.90;;;;;;5018488;28;20057;-62
2023/12/19 07:03:55;;;;;;;12.52;8.10;;;8.50;99.90;;;;;;5033936;28;20053;-61
2023/12/19 07:06:21;;;;;;;11.60;7.03;;;8.60;99.90;;;;;;5026497;28;20401;-62
2023/12/19 07:08:47;;;;;;;13.25;8.32;;;8.60;99.90;;;;;;5024413;28;20041;-62
2023/12/19 07:11:16;;;;;;;12.85;8.20;;;8.60;99.90;;;;;;4996811;28;20045;-62
2023/12/19 07:13:43;;;;;;;12.88;7.80;;;8.60;99.90;;;;;;5014051;28;20061;-62
2023/12/19 07:16:14;;;;;;;11.45;7.93;;;8.60;99.90;;;;;;5023809;28;20539;-62
2023/12/19 07:18:40;;;;;;;12.40;8.32;;;8.60;99.90;;;;;;4998271;28;20041;-62
2023/12/19 07:21:07;;;;;;;10.63;5.75;;;8.60;99.90;;;;;;5003738;28;20073;-62
2023/12/19 07:23:32;;;;;;;12.32;6.32;;;8.70;99.90;;;;;;5034692;28;20045;-62
2023/12/19 07:25:58;;;;;;;12.13;6.18;;;8.60;99.90;;;;;;5031280;28;20037;-62
2023/12/19 07:28:24;;;;;;;12.80;6.38;;;8.60;99.90;;;;;;5015190;28;20045;-62
2023/12/19 07:30:50;;;;;;;11.05;6.05;;;8.60;99.90;;;;;;5015021;28;20056;-61
2023/12/19 07:33:16;;;;;;;10.15;6.07;;;8.70;99.90;;;;;;5014238;28;20045;-62
2023/12/19 07:35:41;;;;;;;12.23;6.82;;;8.70;99.90;;;;;;5014434;28;20118;-62
2023/12/19 07:38:08;;;;;;;10.98;6.32;;;8.70;99.90;;;;;;5031408;28;20049;-62
2023/12/19 07:40:34;;;;;;;9.40;5.82;;;8.80;99.90;;;;;;5033249;28;20622;-62
2023/12/19 07:43:00;;;;;;;12.57;7.22;;;8.80;99.90;;;;;;5034658;28;20094;-62
2023/12/19 07:45:26;;;;;;;10.52;6.43;;;8.80;99.90;;;;;;5028644;28;20045;-62
2023/12/19 07:47:52;;;;;;;14.32;7.22;;;8.80;99.90;;;;;;5029764;28;20470;-62
2023/12/19 07:50:17;;;;;;;10.60;6.20;;;8.80;99.90;;;;;;5033142;28;20036;-62
2023/12/19 07:52:44;;;;;;;10.38;5.82;;;8.80;99.90;;;;;;5042183;28;20482;-62
2023/12/19 07:55:10;;;;;;;10.73;6.38;;;8.80;99.90;;;;;;5017279;28;20045;-62
2023/12/19 07:57:39;;;;;;;11.50;7.25;;;8.80;99.90;;;;;;5032515;28;20152;-62
2023/12/19 08:00:05;;;;;;;16.20;7.28;;;8.70;99.90;;;;;;5033600;28;20171;-62
2023/12/19 08:02:35;;;;;;;14.80;7.57;;;8.80;99.90;;;;;;5032819;28;20084;-62
2023/12/19 08:05:01;;;;;;;10.85;6.22;;;8.80;99.90;;;;;;5017867;28;20056;-62
2023/12/19 08:07:27;;;;;;;11.32;6.75;;;8.90;99.90;;;;;;5033271;28;20048;-61
2023/12/19 08:09:52;;;;;;;11.93;7.00;;;8.80;99.90;;;;;;5034300;28;20080;-61
2023/12/19 08:12:18;;;;;;;11.65;6.47;;;8.80;99.90;;;;;;5009434;28;20041;-62
2023/12/19 08:14:44;;;;;;;13.10;6.80;;;8.70;99.90;;;;;;5013143;28;20049;-62
2023/12/19 08:17:10;;;;;;;10.73;6.90;;;8.80;99.90;;;;;;5014405;28;20045;-62
2023/12/19 08:19:37;;;;;;;10.65;6.13;;;8.70;99.90;;;;;;5027956;28;20512;-62
2023/12/19 08:22:03;;;;;;;12.32;7.22;;;8.70;99.90;;;;;;5014483;28;20054;-62
2023/12/19 08:24:29;;;;;;;9.68;6.15;;;8.70;99.90;;;;;;5032643;28;20041;-62
2023/12/19 08:26:54;;;;;;;13.45;7.07;;;8.70;99.90;;;;;;5034043;28;20036;-62
2023/12/19 08:29:21;;;;;;;11.75;6.07;;;8.80;99.90;;;;;;5032314;28;20086;-62
2023/12/19 08:31:47;;;;;;;12.77;8.02;;;8.70;99.90;;;;;;5033667;28;20053;-62
2023/12/19 08:34:16;;;;;;;13.93;7.57;;;8.70;99.90;;;;;;5032760;28;20116;-62
2023/12/19 08:36:43;;;;;;;10.38;6.72;;;8.70;99.90;;;;;;5022626;28;20049;-62
2023/12/19 08:39:10;;;;;;;11.10;6.95;;;8.80;99.90;;;;;;5033483;28;20081;-62
2023/12/19 08:41:37;;;;;;;9.93;6.32;;;8.70;99.90;;;;;;5031156;28;20458;-62
2023/12/19 08:44:03;;;;;;;14.55;7.43;;;8.70;99.90;;;;;;5030652;28;20048;-62
2023/12/19 08:46:29;;;;;;;10.98;7.50;;;8.70;99.90;;;;;;5050534;28;20052;-61
2023/12/19 08:48:54;;;;;;;11.90;7.60;;;8.80;99.90;;;;;;5032818;28;20123;-61
2023/12/19 08:51:23;;;;;;;11.32;7.45;;;8.90;99.90;;;;;;5032163;28;20059;-60
2023/12/19 08:53:49;;;;;;;14.90;8.32;;;8.80;99.90;;;;;;5032866;28;20056;-63
2023/12/19 08:56:14;;;;;;;13.63;8.13;;;8.90;99.90;;;;;;5027511;28;20045;-60
2023/12/19 08:58:43;;;;;;;14.38;7.45;;;8.90;99.90;;;;;;5045637;28;20487;-61
2023/12/19 09:01:09;;;;;;;13.60;7.90;;;8.90;99.90;;;;;;5031946;28;20044;-60
2023/12/19 09:03:34;;;;;;;12.00;7.80;;;8.90;99.90;;;;;;5032040;28;20053;-61
2023/12/19 09:06:01;;;;;;;14.88;8.43;;;8.90;99.90;;;;;;5030228;28;20082;-61
2023/12/19 09:08:26;;;;;;;13.80;8.18;;;9.00;99.90;;;;;;5032415;28;20056;-61
2023/12/19 09:10:52;;;;;;;14.07;8.75;;;9.00;99.90;;;;;;5031651;28;20045;-60
2023/12/19 09:13:17;;;;;;;11.88;7.28;;;8.90;99.90;;;;;;5032148;28;20055;-61
2023/12/19 09:15:44;;;;;;;12.18;7.80;;;9.00;99.90;;;;;;5048618;28;20040;-61
2023/12/19 09:18:10;;;;;;;10.90;6.90;;;9.00;99.90;;;;;;5011604;28;20045;-61
2023/12/19 09:20:36;;;;;;;12.15;7.55;;;9.10;99.90;;;;;;4996372;28;20037;-61
2023/12/19 09:23:01;;;;;;;10.80;6.70;;;9.00;99.90;;;;;;5031756;28;20044;-61
2023/12/19 09:25:27;;;;;;;11.02;7.15;;;9.10;99.90;;;;;;5030297;28;20045;-61
2023/12/19 09:27:52;;;;;;;13.35;7.20;;;9.00;99.90;;;;;;5032576;28;20068;-61
2023/12/19 09:30:18;;;;;;;12.32;8.55;;;9.10;99.90;;;;;;5048586;28;20124;-61
2023/12/19 09:32:44;;;;;;;13.73;8.57;;;9.00;99.90;;;;;;5048940;28;20136;-61
2023/12/19 09:35:12;;;;;;;11.90;7.75;;;9.00;99.90;;;;;;5015290;28;20037;-61
2023/12/19 09:37:38;;;;;;;11.90;7.53;;;9.10;99.90;;;;;;5031903;28;20094;-61
2023/12/19 09:40:19;;;;;;;16.58;9.95;;;9.10;99.90;;;;;;5015344;28;20127;-61
2023/12/19 09:42:45;;;;;;;10.32;6.70;;;9.10;99.90;;;;;;5049843;28;20045;-61
2023/12/19 09:45:12;;;;;;;12.18;7.22;;;9.20;99.90;;;;;;5049595;28;20040;-61
2023/12/19 09:47:40;;;;;;;13.13;7.82;;;9.20;99.90;;;;;;5030656;28;20056;-61
2023/12/19 09:50:17;;;;;;;12.43;6.63;;;9.20;99.90;;;;;;5009396;28;20053;-61
2023/12/19 09:52:43;;;;;;;13.32;6.35;;;9.20;99.90;;;;;;5004836;28;20548;-61
2023/12/19 09:55:14;;;;;;;11.63;7.38;;;9.30;99.90;;;;;;5028828;28;20048;-61
2023/12/19 09:57:40;;;;;;;13.77;7.82;;;9.20;99.90;;;;;;5046149;28;20037;-61
2023/12/19 10:00:09;;;;;;;14.57;6.65;;;9.30;99.90;;;;;;5030276;28;20124;-61
2023/12/19 10:02:36;;;;;;;9.60;5.95;;;9.30;99.90;;;;;;5028350;28;20057;-61
2023/12/19 10:05:02;;;;;;;11.77;7.05;;;9.20;99.90;;;;;;5014060;28;20042;-61
2023/12/19 10:07:29;;;;;;;9.43;5.45;;;9.40;99.90;;;;;;5018123;28;20124;-61
2023/12/19 10:09:55;;;;;;;9.18;5.90;;;9.30;99.90;;;;;;5017728;28;20045;-61
2023/12/19 10:12:21;;;;;;;9.73;5.85;;;9.30;99.90;;;;;;5029141;28;20091;-61
2023/12/19 10:14:47;;;;;;;10.57;5.63;;;9.40;99.90;;;;;;5026158;28;20135;-61
2023/12/19 10:17:16;;;;;;;25.60;14.98;;;9.30;99.90;;;;;;5027553;28;20080;-61
2023/12/19 10:19:42;;;;;;;18.17;10.57;;;9.40;99.90;;;;;;5028066;28;20645;-61
2023/12/19 10:22:09;;;;;;;14.45;8.50;;;9.40;99.90;;;;;;5027294;28;20049;-61
2023/12/19 10:24:36;;;;;;;11.23;6.40;;;9.50;99.90;;;;;;5007846;28;20042;-61
2023/12/19 10:27:03;;;;;;;12.05;6.75;;;9.50;99.90;;;;;;5008545;28;20048;-61
2023/12/19 10:29:36;;;;;;;11.93;6.03;;;9.60;99.90;;;;;;5017786;28;20045;-61
2023/12/19 10:32:21;;;;;;;8.73;4.97;;;9.50;99.90;;;;;;5028273;28;20115;-61
2023/12/19 10:34:55;;;;;;;10.63;5.65;;;9.60;99.90;;;;;;5027743;28;20052;-61
2023/12/19 10:37:21;;;;;;;10.98;5.63;;;9.50;99.90;;;;;;5026521;28;20041;-61
2023/12/19 10:39:47;;;;;;;13.38;6.57;;;9.60;99.90;;;;;;5026895;28;20491;-61
2023/12/19 10:42:13;;;;;;;9.38;5.53;;;9.70;99.90;;;;;;5027892;28;20049;-61
2023/12/19 10:44:39;;;;;;;19.75;11.55;;;9.60;99.90;;;;;;5026676;28;20041;-61
2023/12/19 10:47:07;;;;;;;21.13;9.38;;;9.70;99.90;;;;;;5027344;28;20411;-62
2023/12/19 10:49:34;;;;;;;10.35;5.88;;;9.80;99.90;;;;;;5017082;28;20131;-62
2023/12/19 10:52:08;;;;;;;13.10;6.30;;;9.70;99.90;;;;;;5023613;28;20045;-62
2023/12/19 10:54:39;;;;;;;11.48;6.25;;;9.80;99.90;;;;;;5018580;28;20446;-62
2023/12/19 10:57:18;;;;;;;11.85;6.72;;;9.80;99.90;;;;;;5002028;28;20041;-62
2023/12/19 10:59:53;;;;;;;13.60;7.47;;;9.80;99.90;;;;;;5028330;28;20545;-62
2023/12/19 11:02:46;;;;;;;16.02;8.93;;;9.80;99.90;;;;;;5035049;28;20108;-62
2023/12/19 11:05:41;;;;;;;14.70;6.53;;;9.90;99.90;;;;;;5028484;28;20056;-62
2023/12/19 11:08:17;;;;;;;10.77;6.47;;;9.80;99.90;;;;;;5021115;28;20091;-61
2023/12/19 11:10:56;;;;;;;16.98;8.13;;;9.90;99.90;;;;;;5018518;28;20144;-62
2023/12/19 11:13:22;;;;;;;19.77;10.27;;;9.90;99.90;;;;;;5000977;28;20045;-62
2023/12/19 11:15:55;;;;;;;17.50;10.23;;;9.90;99.90;;;;;;5034002;28;20504;-62
2023/12/19 11:18:31;;;;;;;18.40;13.52;;;9.90;99.90;;;;;;5034015;28;20401;-61
2023/12/19 11:21:11;;;;;;;13.05;5.80;;;9.90;99.90;;;;;;5034441;28;20611;-61
2023/12/19 11:23:49;;;;;;;11.75;6.25;;;10.00;99.90;;;;;;5033113;28;20044;-61
2023/12/19 11:26:51;;;;;;;13.32;6.60;;;9.90;99.90;;;;;;5033489;28;20607;-61
2023/12/19 11:29:46;;;;;;;10.48;5.97;;;9.90;99.90;;;;;;5002410;28;20060;-61
2023/12/19 11:32:39;;;;;;;10.00;6.20;;;10.00;99.90;;;;;;5017566;28;20057;-61
2023/12/19 11:35:11;;;;;;;9.65;5.05;;;9.90;99.90;;;;;;5032549;28;20065;-61
2023/12/19 11:37:38;;;;;;;11.43;5.80;;;9.90;99.90;;;;;;5023979;28;20045;-61
2023/12/19 11:40:05;;;;;;;11.77;5.40;;;9.90;99.90;;;;;;5042283;28;20056;-61
2023/12/19 11:42:37;;;;;;;12.50;6.70;;;9.90;99.90;;;;;;5019555;28;20465;-61
2023/12/19 11:45:18;;;;;;;11.57;5.72;;;10.00;99.90;;;;;;5023545;28;20037;-61
2023/12/19 11:47:45;;;;;;;12.45;6.13;;;10.00;99.90;;;;;;5028077;28;20041;-61
2023/12/19 11:50:11;;;;;;;16.38;6.75;;;10.00;99.90;;;;;;5033472;28;20063;-61
2023/12/19 11:52:37;;;;;;;11.55;5.25;;;10.00;99.90;;;;;;5020891;28;20048;-61
2023/12/19 11:55:07;;;;;;;9.98;5.75;;;10.00;99.90;;;;;;5028222;28;20379;-61
2023/12/19 11:57:38;;;;;;;10.70;4.22;;;10.10;99.90;;;;;;5049517;28;20084;-61
2023/12/19 12:00:06;;;;;;;8.95;3.53;;;10.10;99.90;;;;;;5017212;28;20053;-61
2023/12/19 12:02:36;;;;;;;8.15;3.47;;;10.10;99.90;;;;;;5033439;28;20060;-61
2023/12/19 12:05:13;;;;;;;6.03;2.80;;;10.00;99.90;;;;;;5034646;28;20045;-61
2023/12/19 12:07:56;;;;;;;6.18;3.20;;;10.00;99.90;;;;;;5032152;28;20049;-62
2023/12/19 12:10:24;;;;;;;6.55;3.40;;;10.00;99.90;;;;;;5013576;28;20057;-61
2023/12/19 12:12:50;;;;;;;8.32;4.43;;;9.90;99.90;;;;;;5014354;28;20053;-61
2023/12/19 12:15:20;;;;;;;6.43;2.92;;;9.90;99.90;;;;;;5013577;28;20049;-61
2023/12/19 12:18:06;;;;;;;6.18;3.58;;;9.90;99.90;;;;;;4997920;28;20037;-61
2023/12/19 12:20:34;;;;;;;5.93;3.15;;;9.90;99.90;;;;;;5013236;28;20057;-61
2023/12/19 12:23:01;;;;;;;8.75;3.45;;;9.90;99.90;;;;;;5015315;28;20487;-62
2023/12/19 12:25:26;;;;;;;12.38;5.68;;;9.90;99.90;;;;;;5006102;28;20051;-61
2023/12/19 12:27:55;;;;;;;10.20;4.25;;;9.90;99.90;;;;;;5016345;28;20049;-62
2023/12/19 12:30:25;;;;;;;13.93;5.30;;;9.90;99.90;;;;;;5033659;28;20048;-61
2023/12/19 12:32:51;;;;;;;8.98;4.55;;;9.90;99.90;;;;;;5033130;28;20049;-61
2023/12/19 12:35:26;;;;;;;8.15;4.05;;;9.90;99.90;;;;;;5049326;28;20080;-62
2023/12/19 12:38:00;;;;;;;7.72;3.75;;;9.80;99.90;;;;;;5031990;28;20579;-62
2023/12/19 12:40:26;;;;;;;7.45;3.75;;;9.80;99.90;;;;;;5033415;28;20128;-62
2023/12/19 12:42:53;;;;;;;6.20;2.75;;;9.90;99.90;;;;;;5031828;28;20037;-62
2023/12/19 12:45:19;;;;;;;6.53;2.85;;;9.80;99.90;;;;;;5032476;28;20044;-62